createdAt,value
2023-01-22T00:06:23.390Z,45.34
2023-01-22T00:16:28.996Z,45.27
2023-01-22T00:26:34.423Z,45.17
2023-01-22T00:36:41.094Z,45.19
2023-01-22T00:46:46.621Z,45.14
2023-01-22T00:56:51.978Z,45.27
2023-01-22T01:06:57.269Z,45.23
2023-01-22T01:17:04.123Z,45.23
2023-01-22T01:27:09.810Z,45.31
2023-01-22T01:37:15.710Z,45.35
2023-01-22T01:47:21.075Z,45.32
2023-01-22T01:57:25.922Z,45.38
2023-01-22T02:07:31.109Z,45.38
2023-01-22T02:17:36.570Z,45.35
2023-01-22T02:27:41.681Z,45.39
2023-01-22T02:37:47.157Z,45.42
2023-01-22T02:47:52.750Z,45.44
2023-01-22T02:57:57.703Z,45.37
2023-01-22T03:08:02.692Z,45.45
2023-01-22T03:18:08.416Z,45.45
2023-01-22T03:28:13.700Z,45.44
2023-01-22T03:38:19.079Z,45.46
2023-01-22T03:48:24.146Z,45.47
2023-01-22T03:58:29.427Z,45.50
2023-01-22T04:08:34.752Z,45.57
2023-01-22T04:18:39.961Z,45.60
2023-01-22T04:28:45.163Z,45.66
2023-01-22T04:38:50.583Z,45.65
2023-01-22T04:48:56.165Z,45.64
2023-01-22T04:59:01.383Z,45.71
2023-01-22T05:09:06.845Z,45.72
2023-01-22T05:19:12.113Z,45.77
2023-01-22T05:29:17.545Z,45.75
2023-01-22T05:39:24.232Z,45.78
2023-01-22T05:49:29.544Z,45.76
2023-01-22T05:59:35.169Z,45.76
2023-01-22T06:09:40.343Z,45.76
2023-01-22T06:19:45.605Z,45.76
2023-01-22T06:29:50.653Z,45.80
2023-01-22T06:39:55.944Z,45.80
2023-01-22T06:50:01.053Z,45.81
2023-01-22T07:00:06.305Z,45.84
2023-01-22T07:10:11.867Z,45.87
2023-01-22T07:20:17.336Z,45.90
2023-01-22T07:30:22.784Z,45.93
2023-01-22T07:40:28.382Z,45.88
2023-01-22T07:50:34.062Z,45.89
2023-01-22T08:00:39.457Z,45.93
2023-01-22T08:10:45.028Z,45.99
2023-01-22T08:20:50.298Z,46.03
2023-01-22T08:30:55.387Z,46.01
2023-01-22T08:41:00.645Z,46.08
2023-01-22T08:51:06.354Z,46.08
2023-01-22T09:01:11.777Z,46.07
2023-01-22T09:11:17.132Z,46.04
2023-01-22T09:21:22.628Z,46.29
2023-01-22T09:31:27.914Z,46.97
2023-01-22T09:41:33.406Z,46.62
2023-01-22T09:51:38.394Z,46.18
2023-01-22T10:01:44.175Z,46.04
2023-01-22T10:11:49.370Z,45.97
2023-01-22T10:21:54.836Z,45.99
2023-01-22T10:31:59.921Z,45.83
2023-01-22T10:42:05.253Z,45.61
2023-01-22T10:52:10.250Z,45.70
2023-01-22T11:02:16.011Z,45.61
2023-01-22T11:12:21.649Z,45.47
2023-01-22T11:22:26.960Z,45.41
2023-01-22T11:32:32.822Z,45.42
2023-01-22T11:42:37.841Z,45.44
2023-01-22T11:52:43.009Z,45.38
2023-01-22T12:02:48.125Z,45.31
2023-01-22T12:12:53.161Z,45.24
2023-01-22T12:22:58.586Z,45.25
2023-01-22T12:33:05.378Z,45.11
2023-01-22T12:43:11.088Z,45.19
2023-01-22T12:53:16.448Z,45.20
2023-01-22T13:03:30.911Z,45.11
2023-01-22T13:13:32.007Z,44.98
2023-01-22T13:23:37.456Z,44.90
2023-01-22T13:33:42.578Z,44.96
2023-01-22T13:43:48.153Z,44.82
2023-01-22T13:53:54.885Z,44.92
2023-01-22T14:04:00.485Z,44.99
2023-01-22T14:14:05.491Z,44.83
2023-01-22T14:24:10.554Z,45.19
2023-01-22T14:34:15.821Z,45.15
2023-01-22T14:44:20.847Z,44.79
2023-01-22T14:54:26.371Z,44.87
2023-01-22T15:04:31.687Z,44.64
2023-01-22T15:14:37.113Z,44.62
2023-01-22T15:24:42.215Z,44.65
2023-01-22T15:34:47.588Z,44.56
2023-01-22T15:44:52.728Z,44.54
2023-01-22T15:54:58.086Z,44.46
2023-01-22T16:05:03.630Z,44.65
2023-01-22T16:15:09.241Z,44.42
2023-01-22T16:25:14.896Z,44.63
2023-01-22T16:35:20.339Z,44.98
2023-01-22T16:45:25.739Z,45.12
2023-01-22T16:55:31.157Z,45.01
2023-01-22T17:05:36.587Z,44.98
2023-01-22T17:15:42.248Z,44.70
2023-01-22T17:35:53.000Z,44.40
2023-01-22T17:56:03.936Z,44.85
2023-01-22T18:06:09.106Z,44.35
2023-01-22T18:16:14.221Z,44.38
2023-01-22T18:26:19.766Z,44.55
2023-01-22T18:36:24.904Z,44.36
2023-01-22T18:46:30.130Z,44.21
2023-01-22T18:56:35.516Z,43.98
2023-01-22T19:06:40.784Z,44.00
2023-01-22T19:16:46.153Z,44.08
2023-01-22T19:26:51.661Z,44.25
2023-01-22T19:36:56.960Z,44.31
2023-01-22T19:47:08.387Z,44.40
2023-01-22T19:57:12.641Z,44.28
2023-01-22T20:07:17.735Z,44.24
2023-01-22T20:17:22.929Z,44.36
2023-01-22T20:27:28.351Z,43.91
2023-01-22T20:37:33.821Z,43.95
2023-01-22T20:47:38.892Z,43.89
2023-01-22T20:57:43.983Z,43.89
2023-01-22T21:07:49.369Z,44.03
2023-01-22T21:18:00.337Z,44.46
2023-01-22T21:28:10.709Z,44.16
2023-01-22T21:38:15.435Z,44.17
2023-01-22T21:48:21.105Z,44.16
2023-01-22T21:58:26.749Z,44.44
2023-01-22T22:08:32.582Z,44.60
2023-01-22T22:18:38.166Z,44.43
2023-01-22T22:28:43.690Z,44.42
2023-01-22T22:38:48.748Z,44.40
2023-01-22T22:48:54.193Z,44.37
2023-01-22T22:58:59.373Z,44.39
2023-01-22T23:09:06.625Z,44.52
2023-01-22T23:19:12.208Z,44.69
2023-01-22T23:29:17.753Z,44.55
2023-01-22T23:39:23.354Z,44.47
2023-01-22T23:49:28.820Z,44.63
2023-01-22T23:59:34.526Z,44.80
